createdAt,value
2022-09-01T00:02:50.824Z,102003.63
2022-09-01T00:07:52.747Z,101998.38
2022-09-01T00:12:54.218Z,102000.91
2022-09-01T00:17:55.815Z,101998.13
2022-09-01T00:22:57.266Z,102000.69
2022-09-01T00:28:00.379Z,101998.00
2022-09-01T00:33:02.535Z,102004.91
2022-09-01T00:38:04.156Z,102003.00
2022-09-01T00:43:28.524Z,102000.16
2022-09-01T00:48:29.917Z,101993.25
2022-09-01T00:53:32.549Z,101989.59
2022-09-01T00:58:34.643Z,101994.69
2022-09-01T01:03:36.645Z,101997.22
2022-09-01T01:08:40.389Z,101992.59
2022-09-01T01:13:48.809Z,101994.47
2022-09-01T01:18:50.750Z,101987.41
2022-09-01T01:23:57.609Z,101988.91
2022-09-01T01:29:00.996Z,101992.25
2022-09-01T01:34:05.692Z,101990.50
2022-09-01T01:39:07.565Z,101990.38
2022-09-01T01:44:09.580Z,101991.16
2022-09-01T01:49:13.450Z,101994.59
2022-09-01T01:54:15.913Z,101987.66
2022-09-01T01:59:19.483Z,101999.03
2022-09-01T02:04:20.977Z,101998.19
2022-09-01T02:09:23.471Z,101990.28
2022-09-01T02:14:25.013Z,101998.09
2022-09-01T02:19:26.468Z,101989.22
2022-09-01T02:24:32.032Z,101990.97
2022-09-01T02:29:33.465Z,101990.13
2022-09-01T02:34:41.713Z,101988.66
2022-09-01T02:39:43.235Z,101994.84
2022-09-01T02:44:44.709Z,101984.06
2022-09-01T02:49:46.676Z,101989.41
2022-09-01T02:54:50.747Z,101986.63
2022-09-01T02:59:52.174Z,101984.66
2022-09-01T03:04:55.824Z,101984.50
2022-09-01T03:09:57.383Z,101980.31
2022-09-01T03:14:58.795Z,101973.97
2022-09-01T03:20:00.325Z,101976.69
2022-09-01T03:25:01.728Z,101975.72
2022-09-01T03:30:03.988Z,101978.31
2022-09-01T03:35:06.122Z,101975.56
2022-09-01T03:40:09.223Z,101975.50
2022-09-01T03:45:12.789Z,101972.19
2022-09-01T03:50:20.595Z,101979.03
2022-09-01T03:55:24.455Z,101972.00
2022-09-01T04:00:29.986Z,101969.25
2022-09-01T04:05:33.906Z,101967.50
2022-09-01T04:10:37.968Z,101963.22
2022-09-01T04:15:39.533Z,101968.53
2022-09-01T04:20:48.600Z,101960.63
2022-09-01T04:25:54.175Z,101967.78
2022-09-01T04:30:57.036Z,101961.72
2022-09-01T04:36:00.763Z,101968.56
2022-09-01T04:41:06.786Z,101957.16
2022-09-01T04:46:08.245Z,101955.44
2022-09-01T04:51:10.515Z,101955.19
2022-09-01T04:56:11.996Z,101963.03
2022-09-01T05:01:20.966Z,101963.84
2022-09-01T05:06:22.515Z,101960.47
2022-09-01T05:11:24.146Z,101962.81
2022-09-01T05:16:30.145Z,101959.31
2022-09-01T05:21:31.947Z,101974.03
2022-09-01T05:26:34.978Z,101974.78
2022-09-01T05:31:38.007Z,101982.72
2022-09-01T05:36:42.346Z,101986.22
2022-09-01T05:41:44.081Z,101978.75
2022-09-01T05:46:46.825Z,101985.38
2022-09-01T05:51:51.707Z,101974.50
2022-09-01T05:56:55.756Z,101980.88
2022-09-01T06:01:57.713Z,101981.44
2022-09-01T06:07:06.718Z,101978.19
2022-09-01T06:12:18.077Z,101977.09
2022-09-01T06:17:24.964Z,101971.50
2022-09-01T06:22:28.249Z,101973.75
2022-09-01T06:27:30.061Z,101973.38
2022-09-01T06:32:33.733Z,101976.16
2022-09-01T06:37:35.353Z,101962.50
2022-09-01T06:42:37.951Z,101974.19
2022-09-01T06:47:39.412Z,101971.31
2022-09-01T06:58:07.309Z,101975.94
2022-09-01T07:03:11.102Z,101973.84
2022-09-01T07:08:17.855Z,101970.59
2022-09-01T07:13:22.748Z,101974.56
2022-09-01T07:18:25.453Z,101970.69
2022-09-01T07:23:46.210Z,101968.19
2022-09-01T07:28:50.856Z,101967.47
2022-09-01T07:33:55.751Z,101963.28
2022-09-01T07:44:38.617Z,101968.53
2022-09-01T07:50:11.532Z,101969.38
2022-09-01T07:55:02.880Z,101960.69
2022-09-01T08:00:06.166Z,101954.50
2022-09-01T08:05:09.279Z,101952.78
2022-09-01T08:10:11.003Z,101950.84
2022-09-01T08:15:13.925Z,101958.50
2022-09-01T08:20:39.570Z,101957.88
2022-09-01T08:25:42.439Z,101961.25
2022-09-01T08:30:52.487Z,101962.78
2022-09-01T08:35:55.490Z,101964.66
2022-09-01T08:40:59.025Z,101963.66
2022-09-01T08:46:12.322Z,101958.06
2022-09-01T08:51:23.855Z,101965.00
2022-09-01T08:56:25.776Z,101955.50
2022-09-01T09:01:31.642Z,101957.25
2022-09-01T09:06:39.031Z,101957.97
2022-09-01T09:11:40.874Z,101959.00
2022-09-01T09:16:44.036Z,101942.69
2022-09-01T09:21:47.725Z,101931.47
2022-09-01T09:26:52.895Z,101929.25
2022-09-01T09:37:34.901Z,101913.31
2022-09-01T09:42:39.843Z,101911.16
2022-09-01T09:47:44.684Z,101905.19
2022-09-01T09:52:48.098Z,101891.81
2022-09-01T09:57:50.728Z,101880.84
2022-09-01T10:03:01.445Z,101894.34
2022-09-01T10:08:08.168Z,101878.13
2022-09-01T10:13:22.129Z,101874.38
2022-09-01T10:18:37.529Z,101877.53
2022-09-01T10:23:41.869Z,101869.56
2022-09-01T10:29:02.977Z,101861.75
2022-09-01T10:34:05.831Z,101861.28
2022-09-01T10:39:11.408Z,101857.72
2022-09-01T10:44:35.795Z,101858.94
2022-09-01T10:49:46.433Z,101846.91
2022-09-01T10:54:55.856Z,101850.59
2022-09-01T11:06:11.177Z,101825.91
2022-09-01T11:11:25.331Z,101843.41
2022-09-01T11:22:29.995Z,101843.06
2022-09-01T11:27:49.537Z,101840.41
2022-09-01T11:32:53.445Z,101824.53
2022-09-01T11:38:02.785Z,101820.66
2022-09-01T11:43:12.537Z,101827.22
2022-09-01T11:48:14.867Z,101820.19
2022-09-01T11:53:21.741Z,101821.38
2022-09-01T11:58:27.189Z,101814.94
2022-09-01T12:03:32.135Z,101801.03
2022-09-01T12:08:35.662Z,101799.94
2022-09-01T12:13:38.202Z,101788.91
2022-09-01T12:18:47.567Z,101792.44
2022-09-01T12:23:49.440Z,101792.09
2022-09-01T12:28:51.079Z,101790.28
2022-09-01T12:33:53.566Z,101797.97
2022-09-01T12:39:18.110Z,101790.97
2022-09-01T12:44:30.484Z,101783.53
2022-09-01T12:49:35.259Z,101781.16
2022-09-01T12:54:37.222Z,101780.56
2022-09-01T12:59:38.831Z,101763.34
2022-09-01T13:04:42.131Z,101762.34
2022-09-01T13:09:44.368Z,101757.91
2022-09-01T13:14:47.711Z,101753.94
2022-09-01T13:19:49.362Z,101746.13
2022-09-01T13:24:51.146Z,101743.56
2022-09-01T13:29:56.186Z,101744.13
2022-09-01T13:34:57.757Z,101741.19
2022-09-01T13:39:59.485Z,101722.97
2022-09-01T13:45:01.333Z,101722.16
2022-09-01T13:50:08.587Z,101722.00
2022-09-01T13:55:12.189Z,101719.16
2022-09-01T14:00:16.039Z,101708.94
2022-09-01T14:05:20.680Z,101707.84
2022-09-01T14:10:23.264Z,101703.13
2022-09-01T14:15:27.378Z,101706.38
2022-09-01T14:20:36.043Z,101701.19
2022-09-01T14:25:42.135Z,101694.44
2022-09-01T14:30:43.967Z,101690.78
2022-09-01T14:35:47.050Z,101692.47
2022-09-01T14:40:49.303Z,101684.59
2022-09-01T14:45:50.831Z,101679.22
2022-09-01T14:50:52.875Z,101675.09
2022-09-01T14:55:56.940Z,101663.00
2022-09-01T15:01:17.444Z,101661.09
2022-09-01T15:06:22.831Z,101667.56
2022-09-01T15:11:24.331Z,101661.72
2022-09-01T15:16:26.287Z,101650.41
2022-09-01T15:21:30.670Z,101642.59
2022-09-01T15:26:32.510Z,101638.03
2022-09-01T15:31:34.067Z,101644.75
2022-09-01T15:36:36.343Z,101645.66
2022-09-01T15:41:38.187Z,101637.97
2022-09-01T15:46:41.150Z,101638.22
2022-09-01T15:51:43.810Z,101642.72
2022-09-01T15:56:46.820Z,101639.94
2022-09-01T16:01:49.595Z,101642.13
2022-09-01T16:06:51.201Z,101629.72
2022-09-01T16:11:53.574Z,101626.34
2022-09-01T16:16:56.721Z,101623.88
2022-09-01T16:22:10.544Z,101627.94
2022-09-01T16:27:23.059Z,101609.72
2022-09-01T16:32:24.603Z,101611.84
2022-09-01T16:37:29.363Z,101605.47
2022-09-01T16:42:50.686Z,101597.44
2022-09-01T16:48:18.553Z,101597.97
2022-09-01T16:53:33.035Z,101603.56
2022-09-01T16:58:37.581Z,101602.91
2022-09-01T17:03:59.400Z,101600.41
2022-09-01T17:09:15.562Z,101602.13
2022-09-01T17:14:27.837Z,101604.19
2022-09-01T17:19:29.377Z,101599.88
2022-09-01T17:24:42.940Z,101607.09
2022-09-01T17:29:46.405Z,101590.59
2022-09-01T17:34:53.974Z,101600.63
2022-09-01T17:39:55.847Z,101596.44
2022-09-01T17:45:10.462Z,101610.69
2022-09-01T17:50:19.011Z,101603.06
2022-09-01T17:55:28.246Z,101603.41
2022-09-01T18:00:44.667Z,101604.50
2022-09-01T18:05:52.066Z,101604.03
2022-09-01T18:10:53.548Z,101599.03
2022-09-01T18:15:59.963Z,101600.34
2022-09-01T18:21:05.011Z,101602.38
2022-09-01T18:26:12.423Z,101602.63
2022-09-01T18:31:24.621Z,101610.84
2022-09-01T18:36:39.024Z,101619.16
2022-09-01T18:41:51.082Z,101615.00
2022-09-01T18:47:10.681Z,101621.22
2022-09-01T18:52:23.888Z,101632.19
2022-09-01T18:57:31.175Z,101635.94
2022-09-01T19:02:51.178Z,101643.25
2022-09-01T19:08:11.829Z,101652.22
2022-09-01T19:13:37.831Z,101650.66
2022-09-01T19:19:05.714Z,101648.28
2022-09-01T19:24:18.714Z,101658.81
2022-09-01T19:29:40.669Z,101649.38
2022-09-01T19:34:45.322Z,101658.25
2022-09-01T19:39:50.873Z,101661.75
2022-09-01T19:45:06.614Z,101670.56
2022-09-01T19:50:21.348Z,101668.81
2022-09-01T19:55:41.435Z,101673.28
2022-09-01T20:00:52.680Z,101675.09
2022-09-01T20:05:56.588Z,101670.78
2022-09-01T20:11:01.285Z,101670.78
2022-09-01T20:16:07.908Z,101669.09
2022-09-01T20:21:20.866Z,101666.47
2022-09-01T20:26:36.115Z,101663.00
2022-09-01T20:31:41.746Z,101669.13
2022-09-01T20:36:43.178Z,101669.13
2022-09-01T20:41:49.250Z,101667.34
2022-09-01T20:46:51.810Z,101663.84
2022-09-01T20:51:59.838Z,101667.34
2022-09-01T20:57:11.943Z,101665.59
2022-09-01T21:02:19.676Z,101657.75
2022-09-01T21:07:40.001Z,101660.38
2022-09-01T21:12:47.501Z,101658.63
2022-09-01T21:17:58.564Z,101661.22
2022-09-01T21:23:00.567Z,101662.97
2022-09-01T21:28:05.064Z,101662.09
2022-09-01T21:33:06.513Z,101651.66
2022-09-01T21:38:08.076Z,101642.03
2022-09-01T21:43:15.951Z,101648.16
2022-09-01T21:48:17.882Z,101647.25
2022-09-01T21:53:20.537Z,101645.53
2022-09-01T21:58:22.066Z,101637.66
2022-09-01T22:03:24.164Z,101638.53
2022-09-01T22:08:26.114Z,101629.81
2022-09-01T22:13:27.690Z,101621.97
2022-09-01T22:18:29.309Z,101618.50
2022-09-01T22:23:30.946Z,101624.59
2022-09-01T22:28:32.451Z,101623.69
2022-09-01T22:33:34.137Z,101619.31
2022-09-01T22:38:35.806Z,101614.94
2022-09-01T22:43:37.219Z,101616.66
2022-09-01T22:48:38.616Z,101612.31
2022-09-01T22:53:41.368Z,101610.53
2022-09-01T22:58:43.238Z,101601.81
2022-09-01T23:03:44.822Z,101597.44
2022-09-01T23:08:46.830Z,101602.72
2022-09-01T23:13:48.238Z,101598.38
2022-09-01T23:18:50.233Z,101593.16
2022-09-01T23:23:58.319Z,101594.13
2022-09-01T23:29:00.675Z,101584.53
2022-09-01T23:34:02.365Z,101578.44
2022-09-01T23:39:05.552Z,101574.94
2022-09-01T23:44:09.672Z,101567.94
2022-09-01T23:49:12.293Z,101561.00
2022-09-01T23:54:13.743Z,101565.38
2022-09-01T23:59:15.450Z,101557.53
